Skip Navigation LinksHome page > Weather > Current weather Skip Navigation Links

Current Weather

Archangel'Sk, Archangel, Russia

For information only: do not use for flight planning or navigation.
Latest weather
Observation time Saturday, October 19, 2019 1:00 PM MSK
Local time Saturday, October 19, 2019 1:21 PM MSK
Flight conditions Instrument Meteorological Conditions
Winds
Wind direction South (180°)
Winds variable from 150° to 220°
Wind speed 11 mph
Visibility 6.2 mi.
Sky condition
Ceiling 600 ft. overcast
Cloud layer overcast 600 ft.
Temperature 34°F
Dewpoint 32°F
Altimeter 29.94 in.Hg
Precipitation
QB 4:10 PM
QF 1:39 AM
Derived measurements
Relative humidity 93%
Wind chill 25°F
Density altitude -1615 ft.
Remarks
No significant changes expected in the next two hours.
METAR ULAA 191000Z 18005MPS 150V220 9999 OVC006 01/00 Q1014 R08/550355 NOSIG RMK QBB190 QFE759/1013

Settings

Location code

InnerDrive.Weather 4.0.6770.0 Release CLR 4.0.30319.42000
Copyright ©2018 Inner Drive Technology. All rights reserved. Portions Copyright ©1986-2018 David Braverman.

Find weather

Site navigation


Skip Navigation Links

Place info

Page info

PayPal - The safer, easier way to pay online!

Return home.

Copyright ©2019 Inner Drive Technology. Purveyors of fine, hand-crafted computer software. Page printed 2019-10-19T10:21:30 UTC.